createdAt,value
2022-08-31T00:01:54.257Z,21.80
2022-08-31T00:04:32.938Z,22.00
2022-08-31T00:07:10.978Z,22.10
2022-08-31T00:09:47.396Z,22.10
2022-08-31T00:12:22.734Z,22.10
2022-08-31T00:14:59.556Z,22.10
2022-08-31T00:17:35.446Z,22.20
2022-08-31T00:20:32.538Z,22.20
2022-08-31T00:23:11.950Z,22.30
2022-08-31T00:25:49.291Z,22.40
2022-08-31T00:28:24.700Z,22.20
2022-08-31T00:31:00.522Z,22.40
2022-08-31T00:33:37.633Z,22.60
2022-08-31T00:36:15.458Z,22.60
2022-08-31T00:38:53.624Z,22.50
2022-08-31T00:41:35.349Z,22.60
2022-08-31T00:44:13.458Z,22.60
2022-08-31T00:46:50.571Z,22.80
2022-08-31T00:49:30.612Z,22.80
2022-08-31T00:52:12.522Z,22.50
2022-08-31T00:54:53.936Z,22.60
2022-08-31T00:57:34.625Z,22.70
2022-08-31T01:00:14.342Z,22.60
2022-08-31T01:02:50.907Z,22.50
2022-08-31T01:10:48.085Z,22.30
2022-08-31T01:13:24.475Z,22.10
2022-08-31T01:16:06.394Z,21.90
2022-08-31T01:18:43.486Z,21.80
2022-08-31T01:21:29.827Z,21.80
2022-08-31T01:24:09.683Z,21.70
2022-08-31T01:26:55.383Z,21.70
2022-08-31T01:29:31.293Z,21.80
2022-08-31T01:32:08.089Z,22.00
2022-08-31T01:34:43.455Z,22.20
2022-08-31T01:37:18.997Z,22.30
2022-08-31T01:40:07.062Z,22.20
2022-08-31T01:42:42.601Z,22.30
2022-08-31T01:45:19.748Z,22.50
2022-08-31T01:47:55.043Z,22.40
2022-08-31T01:55:48.094Z,21.90
2022-08-31T01:58:24.320Z,21.50
2022-08-31T02:01:33.660Z,21.50
2022-08-31T02:04:31.188Z,21.10
2022-08-31T02:07:07.751Z,21.00
2022-08-31T02:09:43.255Z,20.90
2022-08-31T02:12:23.945Z,20.70
2022-08-31T02:15:02.096Z,20.60
2022-08-31T02:17:37.491Z,20.70
2022-08-31T02:20:16.114Z,21.00
2022-08-31T02:22:52.472Z,21.20
2022-08-31T02:25:30.881Z,21.60
2022-08-31T02:28:10.796Z,21.80
2022-08-31T02:30:47.056Z,22.10
2022-08-31T02:33:23.231Z,22.30
2022-08-31T02:35:59.249Z,22.50
2022-08-31T02:38:36.843Z,22.50
2022-08-31T02:41:12.530Z,22.50
2022-08-31T02:54:46.214Z,22.20
2022-08-31T02:57:21.623Z,22.20
2022-08-31T02:59:59.592Z,21.70
2022-08-31T03:02:37.178Z,21.60
2022-08-31T03:05:14.515Z,21.40
2022-08-31T03:07:51.452Z,21.30
2022-08-31T03:10:29.434Z,21.40
2022-08-31T03:13:05.363Z,21.40
2022-08-31T03:15:44.193Z,21.20
2022-08-31T03:21:00.568Z,20.90
2022-08-31T03:23:40.317Z,21.00
2022-08-31T03:26:16.420Z,21.00
2022-08-31T03:28:51.842Z,21.20
2022-08-31T03:31:54.887Z,21.30
2022-08-31T03:34:31.813Z,21.50
2022-08-31T03:37:08.815Z,21.70
2022-08-31T03:39:44.432Z,21.70
2022-08-31T03:42:20.540Z,21.60
2022-08-31T03:44:57.392Z,21.50
2022-08-31T03:47:45.016Z,21.70
2022-08-31T03:50:22.877Z,21.80
2022-08-31T03:53:13.088Z,21.80
2022-08-31T03:55:48.819Z,21.70
2022-08-31T03:58:24.206Z,21.50
2022-08-31T04:01:00.098Z,21.60
2022-08-31T04:04:00.772Z,21.80
2022-08-31T04:07:13.605Z,22.00
2022-08-31T04:10:09.159Z,21.90
2022-08-31T04:13:14.450Z,21.90
2022-08-31T04:16:16.338Z,21.70
2022-08-31T04:19:13.041Z,21.50
2022-08-31T04:35:03.638Z,20.50
2022-08-31T04:37:46.667Z,20.50
2022-08-31T04:40:26.494Z,20.20
2022-08-31T04:43:03.968Z,20.20
2022-08-31T04:45:46.215Z,20.10
2022-08-31T04:48:22.633Z,20.00
2022-08-31T04:51:06.819Z,19.90
2022-08-31T04:53:43.081Z,19.70
2022-08-31T04:56:21.251Z,19.70
2022-08-31T04:58:58.712Z,19.60
2022-08-31T05:01:42.967Z,19.40
2022-08-31T05:04:57.528Z,19.30
2022-08-31T05:07:54.026Z,19.30
2022-08-31T05:10:30.931Z,19.20
2022-08-31T05:13:06.294Z,19.20
2022-08-31T05:18:29.608Z,19.10
2022-08-31T05:21:15.119Z,19.00
2022-08-31T05:23:54.213Z,18.90
2022-08-31T05:26:31.948Z,18.90
2022-08-31T05:29:11.003Z,18.90
2022-08-31T05:31:52.263Z,18.90
2022-08-31T05:34:28.667Z,18.80
2022-08-31T05:37:04.444Z,18.90
2022-08-31T05:47:37.202Z,18.50
2022-08-31T05:50:13.191Z,18.50
2022-08-31T05:52:52.837Z,18.50
2022-08-31T05:55:30.431Z,18.60
2022-08-31T05:58:06.829Z,18.80
2022-08-31T06:00:45.988Z,18.70
2022-08-31T06:03:44.055Z,18.70
2022-08-31T06:06:20.289Z,18.70
2022-08-31T06:08:57.942Z,18.70
2022-08-31T06:11:42.338Z,18.60
2022-08-31T06:14:24.568Z,18.70
2022-08-31T06:17:03.019Z,18.70
2022-08-31T06:19:40.411Z,18.70
2022-08-31T06:22:19.171Z,18.60
2022-08-31T06:24:56.529Z,18.60
2022-08-31T06:27:34.029Z,18.60
2022-08-31T06:32:49.357Z,18.60
2022-08-31T06:35:33.716Z,18.50
2022-08-31T06:38:27.620Z,18.60
2022-08-31T06:41:37.606Z,18.60
2022-08-31T06:44:35.133Z,18.60
2022-08-31T06:47:25.364Z,18.60
2022-08-31T06:50:01.748Z,18.70
2022-08-31T06:52:39.158Z,18.70
2022-08-31T06:55:37.352Z,18.80
2022-08-31T06:58:34.192Z,18.80
2022-08-31T07:01:34.657Z,18.80
2022-08-31T07:04:29.810Z,18.80
2022-08-31T07:07:05.719Z,18.70
2022-08-31T07:10:00.770Z,18.80
2022-08-31T07:57:13.464Z,18.10
2022-08-31T07:59:49.200Z,18.20
2022-08-31T08:05:03.382Z,18.20
